createdAt,value
2019-03-28T00:00:46.339Z,0.00
2019-03-28T00:01:46.268Z,0.00
2019-03-28T00:02:46.248Z,0.00
2019-03-28T00:03:46.254Z,0.00
2019-03-28T00:04:46.219Z,0.00
2019-03-28T00:05:46.245Z,0.00
2019-03-28T00:06:46.217Z,0.00
2019-03-28T00:07:46.213Z,0.00
2019-03-28T00:08:46.231Z,0.00
2019-03-28T00:09:46.165Z,0.00
2019-03-28T00:10:46.184Z,0.00
2019-03-28T00:11:46.153Z,0.00
2019-03-28T00:12:46.155Z,0.00
2019-03-28T00:13:46.141Z,0.00
2019-03-28T00:14:46.124Z,0.00
2019-03-28T00:15:46.136Z,0.00
2019-03-28T00:16:46.090Z,0.00
2019-03-28T00:17:46.080Z,0.00
2019-03-28T00:18:46.083Z,0.00
2019-03-28T00:19:46.070Z,0.00
2019-03-28T00:20:46.093Z,0.00
2019-03-28T00:21:46.034Z,0.00
2019-03-28T00:22:46.030Z,0.00
2019-03-28T00:23:46.039Z,0.00
2019-03-28T00:24:46.024Z,0.00
2019-03-28T00:25:46.022Z,0.00
2019-03-28T00:26:46.007Z,0.00
2019-03-28T00:27:46.320Z,0.00
2019-03-28T00:28:45.966Z,0.00
2019-03-28T00:29:45.975Z,0.00
2019-03-28T00:30:45.985Z,0.00
2019-03-28T00:31:47.922Z,0.00
2019-03-28T00:32:45.912Z,0.00
2019-03-28T00:33:45.927Z,0.00
2019-03-28T00:34:45.910Z,0.00
2019-03-28T00:35:45.927Z,0.00
2019-03-28T00:36:45.880Z,0.00
2019-03-28T00:37:45.892Z,0.00
2019-03-28T00:38:45.866Z,0.00
2019-03-28T00:39:45.843Z,0.00
2019-03-28T00:40:45.861Z,0.00
2019-03-28T00:41:45.850Z,0.00
2019-03-28T00:42:45.823Z,0.00
2019-03-28T00:43:45.840Z,0.00
2019-03-28T00:44:45.802Z,0.00
2019-03-28T00:45:45.835Z,0.00
2019-03-28T00:46:46.227Z,0.00
2019-03-28T00:47:45.764Z,0.00
2019-03-28T00:48:45.781Z,0.00
2019-03-28T00:49:45.753Z,0.00
2019-03-28T00:50:45.752Z,0.00
2019-03-28T00:51:45.739Z,0.00
2019-03-28T00:52:45.713Z,0.00
2019-03-28T00:53:45.710Z,0.00
2019-03-28T00:54:46.159Z,0.00
2019-03-28T00:55:45.672Z,0.00
2019-03-28T00:56:47.594Z,0.00
2019-03-28T00:57:45.653Z,0.00
2019-03-28T00:58:45.643Z,0.00
2019-03-28T00:59:45.623Z,0.00
2019-03-28T01:00:45.641Z,0.00
2019-03-28T01:01:45.657Z,0.00
2019-03-28T01:02:46.075Z,0.00
2019-03-28T01:03:45.578Z,0.00
2019-03-28T01:04:45.582Z,0.00
2019-03-28T01:05:45.568Z,0.00
2019-03-28T01:06:45.573Z,0.00
2019-03-28T01:07:45.538Z,0.00
2019-03-28T01:08:45.529Z,0.00
2019-03-28T01:09:45.547Z,0.00
2019-03-28T01:10:45.513Z,0.00
2019-03-28T01:11:45.528Z,0.00
2019-03-28T01:12:45.502Z,0.00
2019-03-28T01:13:45.479Z,0.00
2019-03-28T01:14:45.460Z,0.00
2019-03-28T01:15:45.469Z,0.00
2019-03-28T01:16:45.471Z,0.00
2019-03-28T01:17:45.467Z,0.00
2019-03-28T01:18:45.505Z,0.00
2019-03-28T01:19:45.433Z,0.00
2019-03-28T01:20:45.421Z,0.00
2019-03-28T01:21:45.429Z,0.00
2019-03-28T01:22:45.388Z,0.00
2019-03-28T01:23:46.084Z,0.00
2019-03-28T01:24:45.369Z,0.00
2019-03-28T01:25:45.365Z,0.00
2019-03-28T01:26:56.556Z,0.00
2019-03-28T01:27:46.330Z,0.00
2019-03-28T01:28:45.304Z,0.00
2019-03-28T01:29:45.305Z,0.00
2019-03-28T01:30:45.294Z,0.00
2019-03-28T01:31:45.315Z,0.00
2019-03-28T01:32:45.270Z,0.00
2019-03-28T01:33:45.257Z,0.00
2019-03-28T01:34:45.241Z,0.00
2019-03-28T01:35:45.224Z,0.00
2019-03-28T01:36:45.249Z,0.00
2019-03-28T01:37:45.219Z,0.00
2019-03-28T01:38:45.214Z,0.00
2019-03-28T01:39:45.203Z,0.00
2019-03-28T01:40:45.193Z,0.00
2019-03-28T01:41:45.184Z,0.00
2019-03-28T01:42:45.178Z,0.00
2019-03-28T01:43:45.158Z,0.00
2019-03-28T01:44:45.145Z,0.00
2019-03-28T01:45:45.125Z,0.00
2019-03-28T01:46:45.140Z,0.00
2019-03-28T01:47:45.120Z,0.00
2019-03-28T01:48:45.125Z,0.00
2019-03-28T01:49:45.086Z,0.00
2019-03-28T01:50:45.070Z,0.00
2019-03-28T01:51:45.071Z,0.00
2019-03-28T01:52:45.041Z,0.00
2019-03-28T01:53:45.041Z,0.00
2019-03-28T01:54:45.050Z,0.00
2019-03-28T01:55:45.041Z,0.00
2019-03-28T01:56:45.001Z,0.00
2019-03-28T01:57:45.030Z,0.00
2019-03-28T01:58:44.982Z,0.00
2019-03-28T01:59:44.992Z,0.00
2019-03-28T02:00:44.955Z,0.00
2019-03-28T02:01:44.956Z,0.00
2019-03-28T02:02:45.331Z,0.00
2019-03-28T02:03:44.944Z,0.00
2019-03-28T02:04:44.920Z,0.00
2019-03-28T02:05:44.913Z,0.00
2019-03-28T02:06:44.905Z,0.00
2019-03-28T02:07:44.917Z,0.00
2019-03-28T02:08:44.871Z,0.00
2019-03-28T02:09:44.882Z,0.00
2019-03-28T02:10:44.861Z,0.00
2019-03-28T02:11:44.840Z,0.00
2019-03-28T02:12:44.860Z,0.00
2019-03-28T02:13:44.815Z,0.00
2019-03-28T02:14:44.808Z,0.00
2019-03-28T02:15:44.787Z,0.00
2019-03-28T02:16:44.771Z,0.00
2019-03-28T02:17:44.801Z,0.00
2019-03-28T02:18:44.762Z,0.00
2019-03-28T02:19:45.193Z,0.00
2019-03-28T02:20:44.741Z,0.00
2019-03-28T02:21:44.723Z,0.00
2019-03-28T02:22:45.177Z,0.00
2019-03-28T02:23:44.716Z,0.00
2019-03-28T02:24:44.693Z,0.00
2019-03-28T02:25:44.697Z,0.00
2019-03-28T02:26:44.673Z,0.00
2019-03-28T02:27:44.681Z,0.00
2019-03-28T02:28:44.672Z,0.00
2019-03-28T02:29:44.636Z,0.00
2019-03-28T02:30:44.627Z,0.00
2019-03-28T02:31:44.610Z,0.00
2019-03-28T02:32:44.641Z,0.00
2019-03-28T02:33:44.633Z,0.00
2019-03-28T02:34:48.643Z,0.00
2019-03-28T02:35:44.602Z,0.00
2019-03-28T02:36:44.600Z,0.00
2019-03-28T02:37:44.593Z,0.00
2019-03-28T02:38:44.543Z,0.00
2019-03-28T02:39:44.539Z,0.00
2019-03-28T02:40:44.524Z,0.00
2019-03-28T02:41:44.512Z,0.00
2019-03-28T02:42:44.544Z,0.00
2019-03-28T02:43:45.524Z,0.00
2019-03-28T02:44:44.494Z,0.00
2019-03-28T02:45:44.475Z,0.00
2019-03-28T02:46:44.463Z,0.00
2019-03-28T02:47:44.477Z,0.00
2019-03-28T02:48:44.444Z,0.00
2019-03-28T02:49:45.224Z,0.00
2019-03-28T02:50:44.418Z,0.00
2019-03-28T02:51:44.400Z,0.00
2019-03-28T02:52:44.420Z,0.00
2019-03-28T02:53:44.385Z,0.00
2019-03-28T02:54:44.369Z,0.00
2019-03-28T02:55:44.371Z,0.00
2019-03-28T02:56:44.360Z,0.00
2019-03-28T02:57:44.381Z,0.00
2019-03-28T02:58:44.338Z,0.00
2019-03-28T02:59:44.333Z,0.00
2019-03-28T03:00:44.313Z,0.00
2019-03-28T03:01:44.307Z,0.00
2019-03-28T03:02:44.309Z,0.00
2019-03-28T03:03:44.311Z,0.00
2019-03-28T03:04:44.278Z,0.00
2019-03-28T03:05:44.256Z,0.00
2019-03-28T03:06:44.245Z,0.00
2019-03-28T03:07:44.235Z,0.00
2019-03-28T03:08:44.248Z,0.00
2019-03-28T03:09:44.217Z,0.00
2019-03-28T03:10:44.287Z,0.00
2019-03-28T03:11:44.209Z,0.00
2019-03-28T03:12:44.181Z,0.00
2019-03-28T03:13:44.265Z,0.00
2019-03-28T03:14:44.185Z,0.00
2019-03-28T03:15:44.141Z,0.00
2019-03-28T03:16:44.144Z,0.00
2019-03-28T03:17:44.125Z,0.00
2019-03-28T03:18:44.258Z,0.00
2019-03-28T03:19:44.101Z,0.00
2019-03-28T03:20:44.108Z,0.00
2019-03-28T03:21:44.091Z,0.00
2019-03-28T03:22:44.082Z,0.00
2019-03-28T03:23:44.080Z,0.00
2019-03-28T03:24:44.030Z,0.00
2019-03-28T03:25:44.057Z,0.00
2019-03-28T03:26:44.023Z,0.00
2019-03-28T03:27:56.861Z,0.00
2019-03-28T03:28:45.040Z,0.00
2019-03-28T03:29:43.996Z,0.00
2019-03-28T03:30:43.979Z,0.00
2019-03-28T03:31:43.970Z,0.00
2019-03-28T03:32:43.967Z,0.00
2019-03-28T03:33:43.995Z,0.00
2019-03-28T03:34:43.937Z,0.00
2019-03-28T03:35:43.930Z,0.00
2019-03-28T03:36:43.930Z,0.00
2019-03-28T03:37:43.898Z,0.00
2019-03-28T03:38:43.927Z,0.00
2019-03-28T03:39:43.891Z,0.00
2019-03-28T03:40:43.875Z,0.00
2019-03-28T03:41:44.788Z,0.00
2019-03-28T03:42:43.861Z,0.00
2019-03-28T03:43:43.863Z,0.00
2019-03-28T03:44:43.832Z,0.00
2019-03-28T03:45:43.803Z,0.00
2019-03-28T03:46:43.811Z,0.00
2019-03-28T03:47:43.792Z,0.00
2019-03-28T03:48:43.808Z,0.00
2019-03-28T03:49:43.797Z,0.00
2019-03-28T03:50:43.756Z,0.00
2019-03-28T03:51:46.483Z,0.00
2019-03-28T03:52:43.753Z,0.00
2019-03-28T03:53:43.748Z,0.00
2019-03-28T03:54:43.738Z,0.00
2019-03-28T03:55:43.698Z,0.00
2019-03-28T03:56:43.708Z,0.00
2019-03-28T03:57:43.728Z,0.00
2019-03-28T03:58:43.721Z,0.00
2019-03-28T03:59:43.673Z,0.00
2019-03-28T04:00:43.687Z,0.00
2019-03-28T04:01:44.517Z,0.00
2019-03-28T04:02:43.625Z,0.00
2019-03-28T04:03:43.645Z,0.00
2019-03-28T04:04:43.628Z,0.00
2019-03-28T04:05:43.620Z,0.00
2019-03-28T04:06:43.630Z,0.00
2019-03-28T04:07:43.584Z,0.00
2019-03-28T04:08:43.605Z,0.00
2019-03-28T04:09:43.573Z,0.00
2019-03-28T04:10:43.569Z,0.00
2019-03-28T04:11:43.544Z,0.00
2019-03-28T04:12:43.535Z,0.00
2019-03-28T04:13:43.554Z,0.00
2019-03-28T04:14:43.518Z,0.00
2019-03-28T04:15:43.510Z,0.00
2019-03-28T04:16:43.488Z,0.00
2019-03-28T04:17:43.496Z,0.00
2019-03-28T04:18:43.575Z,0.00
2019-03-28T04:19:43.477Z,0.00
2019-03-28T04:20:43.454Z,0.00
2019-03-28T04:21:43.799Z,0.00
2019-03-28T04:22:43.445Z,0.00
2019-03-28T04:23:43.424Z,0.00
2019-03-28T04:24:43.425Z,0.00
2019-03-28T04:25:43.404Z,0.00
2019-03-28T04:26:43.380Z,0.00
2019-03-28T04:27:43.370Z,0.00
2019-03-28T04:28:43.369Z,0.00
2019-03-28T04:29:43.376Z,0.00
2019-03-28T04:30:43.339Z,0.00
2019-03-28T04:31:43.330Z,0.00
2019-03-28T04:32:43.313Z,0.00
2019-03-28T04:33:43.300Z,0.00
2019-03-28T04:34:43.336Z,0.00
2019-03-28T04:35:43.289Z,0.00
2019-03-28T04:36:43.290Z,0.00
2019-03-28T04:37:43.281Z,0.00
2019-03-28T04:38:43.247Z,0.00
2019-03-28T04:39:43.262Z,0.00
2019-03-28T04:40:43.225Z,0.00
2019-03-28T04:41:43.217Z,0.00
2019-03-28T04:42:45.844Z,0.00
2019-03-28T04:43:43.216Z,0.00
2019-03-28T04:44:43.195Z,0.00
2019-03-28T04:45:43.171Z,0.00
2019-03-28T04:46:43.184Z,0.00
2019-03-28T04:47:43.147Z,0.00
2019-03-28T04:48:43.142Z,0.00
2019-03-28T04:49:43.221Z,0.00
2019-03-28T04:50:43.142Z,4.00
2019-03-28T04:51:43.105Z,4.00
2019-03-28T04:52:43.096Z,0.00
2019-03-28T04:53:43.112Z,4.00
2019-03-28T04:54:43.102Z,0.00
2019-03-28T04:55:43.087Z,4.00
2019-03-28T04:56:43.061Z,4.00
2019-03-28T04:57:43.046Z,8.00
2019-03-28T04:58:44.696Z,8.00
2019-03-28T04:59:43.072Z,8.00
2019-03-28T05:00:43.010Z,12.00
2019-03-28T05:01:43.000Z,12.00
2019-03-28T05:02:45.907Z,12.00
2019-03-28T05:03:43.011Z,16.00
2019-03-28T05:04:43.011Z,16.00
2019-03-28T05:05:42.962Z,20.00
2019-03-28T05:06:42.960Z,20.00
2019-03-28T05:07:42.952Z,28.00
2019-03-28T05:08:42.952Z,28.00
2019-03-28T05:09:42.941Z,32.00
2019-03-28T05:10:42.916Z,40.00
2019-03-28T05:11:42.897Z,40.00
2019-03-28T05:12:42.907Z,48.00
2019-03-28T05:13:42.873Z,56.00
2019-03-28T05:14:42.882Z,64.00
2019-03-28T05:15:42.852Z,68.00
2019-03-28T05:16:42.846Z,80.00
2019-03-28T05:17:42.834Z,88.00
2019-03-28T05:18:42.816Z,96.00
2019-03-28T05:19:42.859Z,104.00
2019-03-28T05:20:42.781Z,120.00
2019-03-28T05:21:42.789Z,132.00
2019-03-28T05:22:42.797Z,140.00
2019-03-28T05:23:42.769Z,156.00
2019-03-28T05:24:42.753Z,164.00
2019-03-28T05:25:42.777Z,176.00
2019-03-28T05:26:42.727Z,192.00
2019-03-28T05:27:42.729Z,196.00
2019-03-28T05:28:42.707Z,204.00
2019-03-28T05:29:42.701Z,208.00
2019-03-28T05:30:43.251Z,212.00
2019-03-28T05:31:42.707Z,220.00
2019-03-28T05:32:42.679Z,232.00
2019-03-28T05:33:42.670Z,244.00
2019-03-28T05:34:42.650Z,256.00
2019-03-28T05:35:42.670Z,272.00
2019-03-28T05:36:42.619Z,284.00
2019-03-28T05:37:42.630Z,300.00
2019-03-28T05:38:42.600Z,308.00
2019-03-28T05:39:42.578Z,328.00
2019-03-28T05:40:42.623Z,348.00
2019-03-28T05:41:42.575Z,372.00
2019-03-28T05:42:42.563Z,404.00
2019-03-28T05:43:45.356Z,436.00
2019-03-28T05:44:42.553Z,468.00
2019-03-28T05:45:42.552Z,488.00
2019-03-28T05:46:42.535Z,508.00
2019-03-28T05:47:42.498Z,524.00
2019-03-28T05:48:42.507Z,548.00
2019-03-28T05:49:42.488Z,572.00
2019-03-28T05:50:42.486Z,592.00
2019-03-28T05:51:42.479Z,604.00
2019-03-28T05:52:42.469Z,604.00
2019-03-28T05:53:43.972Z,604.00
2019-03-28T05:54:42.440Z,600.00
2019-03-28T05:55:42.461Z,604.00
2019-03-28T05:56:42.407Z,604.00
2019-03-28T05:57:42.404Z,616.00
2019-03-28T05:58:42.384Z,632.00
2019-03-28T05:59:42.384Z,644.00
2019-03-28T06:00:42.414Z,660.00
2019-03-28T06:01:42.355Z,680.00
2019-03-28T06:02:42.346Z,708.00
2019-03-28T06:03:42.476Z,732.00
2019-03-28T06:04:42.340Z,772.00
2019-03-28T06:05:42.340Z,808.00
2019-03-28T06:06:42.299Z,848.00
2019-03-28T06:07:42.286Z,888.00
2019-03-28T06:08:42.309Z,936.00
2019-03-28T06:09:42.291Z,996.00
2019-03-28T06:10:42.285Z,1052.00
2019-03-28T06:11:42.247Z,1104.00
2019-03-28T06:12:42.245Z,1156.00
2019-03-28T06:13:42.241Z,1208.00
2019-03-28T06:14:42.222Z,1264.00
2019-03-28T06:15:42.257Z,1320.00
2019-03-28T06:16:42.202Z,1364.00
2019-03-28T06:17:42.205Z,1408.00
2019-03-28T06:18:42.201Z,1460.00
2019-03-28T06:19:42.170Z,1528.00
2019-03-28T06:20:42.180Z,1628.00
2019-03-28T06:21:42.130Z,1740.00
2019-03-28T06:22:42.140Z,1848.00
2019-03-28T06:23:42.121Z,1952.00
2019-03-28T06:24:42.096Z,2016.00
2019-03-28T06:25:42.151Z,2056.00
2019-03-28T06:26:42.085Z,2084.00
2019-03-28T06:27:42.067Z,2128.00
2019-03-28T06:28:42.103Z,2192.00
2019-03-28T06:29:42.068Z,2260.00
2019-03-28T06:30:42.057Z,2336.00
2019-03-28T06:31:54.315Z,2396.00
2019-03-28T06:32:43.647Z,2452.00
2019-03-28T06:33:42.015Z,2504.00
2019-03-28T06:34:42.475Z,2560.00
2019-03-28T06:35:42.052Z,2640.00
2019-03-28T06:36:41.979Z,2756.00
2019-03-28T06:37:41.977Z,2864.00
2019-03-28T06:38:41.947Z,2996.00
2019-03-28T06:39:41.962Z,3136.00
2019-03-28T06:40:41.983Z,3268.00
2019-03-28T06:41:44.249Z,3408.00
2019-03-28T06:42:41.953Z,3596.00
2019-03-28T06:43:42.260Z,3804.00
2019-03-28T06:44:41.892Z,4040.00
2019-03-28T06:45:41.991Z,4244.00
2019-03-28T06:46:41.883Z,4424.00
2019-03-28T06:47:41.864Z,4596.00
2019-03-28T06:48:41.855Z,4672.00
2019-03-28T06:49:41.843Z,4628.00
2019-03-28T06:50:41.904Z,4700.00
2019-03-28T06:51:41.867Z,4800.00
2019-03-28T06:52:41.793Z,4864.00
2019-03-28T06:53:41.807Z,4912.00
2019-03-28T06:54:41.811Z,4940.00
2019-03-28T06:55:41.799Z,5028.00
2019-03-28T06:56:41.768Z,5168.00
2019-03-28T06:57:41.757Z,5356.00
2019-03-28T06:58:41.743Z,5620.00
2019-03-28T06:59:41.724Z,5856.00
2019-03-28T07:00:41.746Z,6084.00
2019-03-28T07:01:41.726Z,6332.00
2019-03-28T07:02:41.685Z,6540.00
2019-03-28T07:03:41.677Z,6748.00
2019-03-28T07:04:41.693Z,6900.00
2019-03-28T07:05:41.700Z,7032.00
2019-03-28T07:06:41.663Z,7252.00
2019-03-28T07:07:41.637Z,7580.00
2019-03-28T07:08:41.629Z,7924.00
2019-03-28T07:09:41.623Z,8068.00
2019-03-28T07:10:41.638Z,8228.00
2019-03-28T07:11:41.603Z,8264.00
2019-03-28T07:12:41.600Z,8064.00
2019-03-28T07:13:41.598Z,8236.00
2019-03-28T07:14:41.579Z,8620.00
2019-03-28T07:15:41.599Z,9524.00
2019-03-28T07:16:41.566Z,9952.00
2019-03-28T07:17:41.559Z,9780.00
2019-03-28T07:18:41.533Z,9864.00
2019-03-28T07:19:41.499Z,9940.00
2019-03-28T07:20:41.498Z,10132.00
2019-03-28T07:21:41.534Z,10440.00
2019-03-28T07:22:41.474Z,10776.00
2019-03-28T07:23:41.464Z,11136.00
2019-03-28T07:24:41.485Z,11668.00
2019-03-28T07:25:41.454Z,12112.00
2019-03-28T07:26:41.460Z,12624.00
2019-03-28T07:27:41.459Z,13896.00
2019-03-28T07:28:41.413Z,13724.00
2019-03-28T07:29:50.638Z,13604.00
2019-03-28T07:30:42.380Z,13672.00
2019-03-28T07:31:41.415Z,14624.00
2019-03-28T07:32:43.444Z,13008.00
2019-03-28T07:33:41.366Z,12716.00
2019-03-28T07:34:41.361Z,12448.00
2019-03-28T07:35:41.375Z,12256.00
2019-03-28T07:36:41.371Z,12076.00
2019-03-28T07:37:41.325Z,11940.00
2019-03-28T07:38:41.328Z,12064.00
2019-03-28T07:39:41.310Z,12508.00
2019-03-28T07:40:41.270Z,12956.00
2019-03-28T07:41:41.299Z,13444.00
2019-03-28T07:42:41.286Z,13872.00
2019-03-28T07:43:41.266Z,14268.00
2019-03-28T07:44:41.255Z,14376.00
2019-03-28T07:45:41.254Z,14648.00
2019-03-28T07:46:41.238Z,15360.00
2019-03-28T07:47:41.223Z,16064.00
2019-03-28T07:48:41.191Z,16832.00
2019-03-28T07:49:41.196Z,17440.00
2019-03-28T07:50:42.548Z,18144.00
2019-03-28T07:51:41.197Z,24448.00
2019-03-28T07:52:41.146Z,19744.00
2019-03-28T07:53:41.138Z,20448.00
2019-03-28T07:54:41.164Z,21120.00
2019-03-28T07:55:41.111Z,21152.00
2019-03-28T07:56:41.151Z,20672.00
2019-03-28T07:57:41.489Z,20160.00
2019-03-28T07:58:44.071Z,19584.00
2019-03-28T07:59:44.014Z,18720.00
2019-03-28T08:00:41.096Z,18496.00
2019-03-28T08:01:41.080Z,19456.00
2019-03-28T08:02:41.415Z,16832.00
2019-03-28T08:03:41.047Z,16864.00
2019-03-28T08:04:41.167Z,17408.00
2019-03-28T08:05:41.028Z,18208.00
2019-03-28T08:06:49.633Z,19456.00
2019-03-28T08:07:45.331Z,21024.00
2019-03-28T08:08:44.075Z,23232.00
2019-03-28T08:09:41.008Z,25056.00
2019-03-28T08:10:40.973Z,26432.00
2019-03-28T08:11:40.973Z,28320.00
2019-03-28T08:12:41.002Z,28864.00
2019-03-28T08:13:40.969Z,31584.00
2019-03-28T08:14:40.932Z,38208.00
2019-03-28T08:15:40.911Z,38624.00
2019-03-28T08:16:40.906Z,32576.00
2019-03-28T08:17:40.883Z,31968.00
2019-03-28T08:18:40.888Z,32096.00
2019-03-28T08:19:41.709Z,36192.00
2019-03-28T08:20:40.831Z,31648.00
2019-03-28T08:21:40.858Z,28832.00
2019-03-28T08:22:40.847Z,32960.00
2019-03-28T08:23:40.815Z,32928.00
2019-03-28T08:24:40.810Z,37216.00
2019-03-28T08:25:41.578Z,39456.00
2019-03-28T08:26:40.774Z,38880.00
2019-03-28T08:27:40.810Z,38752.00
2019-03-28T08:28:40.752Z,38944.00
2019-03-28T08:29:40.728Z,33216.00
2019-03-28T08:30:40.743Z,34208.00
2019-03-28T08:31:40.918Z,28320.00
2019-03-28T08:32:40.726Z,26112.00
2019-03-28T08:33:40.694Z,25728.00
2019-03-28T08:34:40.699Z,25120.00
2019-03-28T08:35:40.670Z,23872.00
2019-03-28T08:36:40.667Z,22848.00
2019-03-28T08:37:40.674Z,22240.00
2019-03-28T08:38:40.647Z,21216.00
2019-03-28T08:39:40.668Z,21152.00
2019-03-28T08:40:40.660Z,19328.00
2019-03-28T08:41:40.646Z,18208.00
2019-03-28T08:42:40.637Z,18240.00
2019-03-28T08:43:40.604Z,18752.00
2019-03-28T08:44:40.654Z,19808.00
2019-03-28T08:45:40.588Z,20672.00
2019-03-28T08:46:40.651Z,22336.00
2019-03-28T08:47:40.754Z,25632.00
2019-03-28T08:48:40.589Z,27776.00
2019-03-28T08:49:40.701Z,29888.00
2019-03-28T08:50:40.885Z,31488.00
2019-03-28T08:51:40.589Z,29952.00
2019-03-28T08:52:40.757Z,29984.00
2019-03-28T08:53:40.620Z,29184.00
2019-03-28T08:54:40.480Z,28960.00
2019-03-28T08:55:40.471Z,29344.00
2019-03-28T08:56:40.483Z,36448.00
2019-03-28T08:57:40.484Z,36096.00
2019-03-28T08:58:40.457Z,44160.00
2019-03-28T08:59:40.439Z,48576.00
2019-03-28T09:00:51.583Z,53440.00
2019-03-28T09:01:41.401Z,49248.00
2019-03-28T09:02:40.497Z,50496.00
2019-03-28T09:03:40.397Z,59040.00
2019-03-28T09:04:40.397Z,50048.00
2019-03-28T09:05:40.430Z,53152.00
2019-03-28T09:06:40.337Z,65888.00
2019-03-28T09:07:40.382Z,47680.00
2019-03-28T09:08:40.348Z,53824.00
2019-03-28T09:09:40.323Z,52032.00
2019-03-28T09:10:40.295Z,50912.00
2019-03-28T09:11:40.315Z,47552.00
2019-03-28T09:12:40.316Z,41536.00
2019-03-28T09:13:40.282Z,40544.00
2019-03-28T09:14:40.267Z,33440.00
2019-03-28T09:15:44.098Z,29408.00
2019-03-28T09:16:40.304Z,29248.00
2019-03-28T09:17:40.255Z,30432.00
2019-03-28T09:18:40.256Z,31232.00
2019-03-28T09:19:40.221Z,27104.00
2019-03-28T09:20:40.405Z,26240.00
2019-03-28T09:21:40.204Z,25184.00
2019-03-28T09:22:40.243Z,23232.00
2019-03-28T09:23:40.196Z,22048.00
2019-03-28T09:24:40.158Z,20960.00
2019-03-28T09:25:40.169Z,19904.00
2019-03-28T09:26:40.157Z,18880.00
2019-03-28T09:27:40.150Z,17856.00
2019-03-28T09:28:40.147Z,16736.00
2019-03-28T09:29:40.097Z,15616.00
2019-03-28T09:30:48.148Z,14552.00
2019-03-28T09:31:41.334Z,13808.00
2019-03-28T09:32:40.076Z,13136.00
2019-03-28T09:33:40.796Z,12524.00
2019-03-28T09:34:40.066Z,11968.00
2019-03-28T09:35:40.146Z,11536.00
2019-03-28T09:36:40.031Z,11284.00
2019-03-28T09:37:40.464Z,11116.00
2019-03-28T09:38:40.301Z,10952.00
2019-03-28T09:39:39.988Z,10700.00
2019-03-28T09:40:40.011Z,10504.00
2019-03-28T09:41:39.996Z,10412.00
2019-03-28T09:42:39.973Z,10332.00
2019-03-28T09:43:54.185Z,10196.00
2019-03-28T09:44:40.992Z,10128.00
2019-03-28T09:45:39.982Z,10184.00
2019-03-28T09:46:39.908Z,10348.00
2019-03-28T09:47:39.930Z,10496.00
2019-03-28T09:48:39.945Z,10532.00
2019-03-28T09:49:39.899Z,10432.00
2019-03-28T09:50:40.044Z,10244.00
2019-03-28T09:51:39.906Z,10028.00
2019-03-28T09:52:39.880Z,9796.00
2019-03-28T09:53:39.898Z,9548.00
2019-03-28T09:54:39.888Z,9220.00
2019-03-28T09:55:39.838Z,8892.00
2019-03-28T09:56:39.852Z,8592.00
2019-03-28T09:57:39.837Z,8280.00
2019-03-28T09:58:39.849Z,7936.00
2019-03-28T09:59:39.844Z,7656.00
2019-03-28T10:00:39.802Z,7452.00
2019-03-28T10:01:39.836Z,7364.00
2019-03-28T10:02:39.758Z,7384.00
2019-03-28T10:03:39.937Z,7468.00
2019-03-28T10:04:39.762Z,7552.00
2019-03-28T10:05:39.743Z,7624.00
2019-03-28T10:06:39.713Z,7648.00
2019-03-28T10:07:39.716Z,7608.00
2019-03-28T10:08:39.712Z,7536.00
2019-03-28T10:09:39.925Z,7460.00
2019-03-28T10:10:39.674Z,7404.00
2019-03-28T10:11:39.657Z,7376.00
2019-03-28T10:12:39.638Z,7344.00
2019-03-28T10:13:39.676Z,7212.00
2019-03-28T10:14:39.632Z,6984.00
2019-03-28T10:15:39.617Z,6752.00
2019-03-28T10:16:40.438Z,6640.00
2019-03-28T10:17:42.358Z,6692.00
2019-03-28T10:18:39.610Z,6748.00
2019-03-28T10:19:39.568Z,6792.00
2019-03-28T10:20:39.543Z,6788.00
2019-03-28T10:21:39.534Z,6716.00
2019-03-28T10:22:39.818Z,6660.00
2019-03-28T10:23:39.968Z,6696.00
2019-03-28T10:24:39.510Z,6820.00
2019-03-28T10:25:40.560Z,6964.00
2019-03-28T10:26:39.704Z,7096.00
2019-03-28T10:27:39.479Z,7208.00
2019-03-28T10:28:39.500Z,7312.00
2019-03-28T10:29:39.469Z,7396.00
2019-03-28T10:30:39.446Z,7448.00
2019-03-28T10:31:39.435Z,7496.00
2019-03-28T10:32:39.431Z,7564.00
2019-03-28T10:33:39.433Z,7640.00
2019-03-28T10:34:39.393Z,7760.00
2019-03-28T10:35:39.409Z,7848.00
2019-03-28T10:36:39.374Z,7896.00
2019-03-28T10:37:39.366Z,7900.00
2019-03-28T10:38:39.379Z,7904.00
2019-03-28T10:39:39.380Z,7928.00
2019-03-28T10:40:39.335Z,7996.00
2019-03-28T10:41:39.981Z,8088.00
2019-03-28T10:42:39.317Z,8188.00
2019-03-28T10:43:39.309Z,8284.00
2019-03-28T10:44:39.344Z,8396.00
2019-03-28T10:45:39.292Z,8556.00
2019-03-28T10:46:39.292Z,8796.00
2019-03-28T10:47:39.280Z,9132.00
2019-03-28T10:48:39.276Z,9552.00
2019-03-28T10:49:39.240Z,10036.00
2019-03-28T10:50:45.066Z,10556.00
2019-03-28T10:51:40.215Z,11084.00
2019-03-28T10:52:39.222Z,11572.00
2019-03-28T10:53:39.216Z,11960.00
2019-03-28T10:54:39.185Z,12188.00
2019-03-28T10:55:39.188Z,12260.00
2019-03-28T10:56:51.134Z,12148.00
2019-03-28T10:57:40.147Z,12024.00
2019-03-28T10:58:39.242Z,11988.00
2019-03-28T10:59:39.145Z,12072.00
2019-03-28T11:00:39.125Z,12280.00
2019-03-28T11:01:49.121Z,12552.00
2019-03-28T11:02:40.103Z,12768.00
2019-03-28T11:03:39.129Z,12888.00
2019-03-28T11:04:39.063Z,12964.00
2019-03-28T11:05:39.088Z,13088.00
2019-03-28T11:06:39.046Z,13328.00
2019-03-28T11:07:39.054Z,13676.00
2019-03-28T11:08:39.084Z,14156.00
2019-03-28T11:09:39.023Z,14636.00
2019-03-28T11:10:39.002Z,14912.00
2019-03-28T11:11:39.027Z,14936.00
2019-03-28T11:12:39.007Z,14800.00
2019-03-28T11:13:39.006Z,14600.00
2019-03-28T11:14:39.013Z,14452.00
2019-03-28T11:15:38.958Z,14588.00
2019-03-28T11:16:38.968Z,14964.00
2019-03-28T11:17:38.930Z,15616.00
2019-03-28T11:18:39.674Z,16096.00
2019-03-28T11:19:38.923Z,16288.00
2019-03-28T11:20:40.115Z,16096.00
2019-03-28T11:21:38.916Z,15680.00
2019-03-28T11:22:38.866Z,15192.00
2019-03-28T11:23:38.876Z,15168.00
2019-03-28T11:24:38.854Z,15400.00
2019-03-28T11:25:38.854Z,16000.00
2019-03-28T11:26:38.822Z,16608.00
2019-03-28T11:27:38.829Z,17408.00
2019-03-28T11:28:39.017Z,17920.00
2019-03-28T11:29:38.783Z,18112.00
2019-03-28T11:30:38.834Z,18016.00
2019-03-28T11:31:46.249Z,18080.00
2019-03-28T11:32:39.770Z,18368.00
2019-03-28T11:33:38.819Z,18816.00
2019-03-28T11:34:38.753Z,19136.00
2019-03-28T11:35:38.741Z,19264.00
2019-03-28T11:36:38.733Z,18976.00
2019-03-28T11:37:38.754Z,18272.00
2019-03-28T11:38:38.750Z,17568.00
2019-03-28T11:39:39.034Z,16960.00
2019-03-28T11:40:39.348Z,16640.00
2019-03-28T11:41:38.690Z,16544.00
2019-03-28T11:42:38.684Z,16672.00
2019-03-28T11:43:38.683Z,16960.00
2019-03-28T11:44:38.749Z,17376.00
2019-03-28T11:45:38.630Z,17824.00
2019-03-28T11:46:38.668Z,18240.00
2019-03-28T11:47:38.803Z,18624.00
2019-03-28T11:48:38.610Z,18816.00
2019-03-28T11:49:38.604Z,18944.00
2019-03-28T11:50:38.575Z,18816.00
2019-03-28T11:51:38.562Z,18592.00
2019-03-28T11:52:38.635Z,18656.00
2019-03-28T11:53:38.545Z,19008.00
2019-03-28T11:54:38.571Z,20160.00
2019-03-28T11:55:38.527Z,19968.00
2019-03-28T11:56:38.529Z,19808.00
2019-03-28T11:57:38.831Z,19744.00
2019-03-28T11:58:38.756Z,19744.00
2019-03-28T11:59:38.524Z,19136.00
2019-03-28T12:00:38.490Z,18240.00
2019-03-28T12:01:38.456Z,16320.00
2019-03-28T12:02:38.440Z,15552.00
2019-03-28T12:03:38.438Z,14184.00
2019-03-28T12:04:38.798Z,13908.00
2019-03-28T12:05:38.418Z,13496.00
2019-03-28T12:06:38.410Z,13356.00
2019-03-28T12:07:38.416Z,13800.00
2019-03-28T12:08:38.371Z,14496.00
2019-03-28T12:09:38.408Z,15168.00
2019-03-28T12:10:38.900Z,15032.00
2019-03-28T12:11:38.356Z,15092.00
2019-03-28T12:12:38.337Z,15260.00
2019-03-28T12:13:44.660Z,14988.00
2019-03-28T12:14:39.335Z,14520.00
2019-03-28T12:15:38.320Z,14568.00
2019-03-28T12:16:38.354Z,14304.00
2019-03-28T12:17:38.282Z,14088.00
2019-03-28T12:18:38.295Z,14152.00
2019-03-28T12:19:38.300Z,14284.00
2019-03-28T12:20:38.273Z,14208.00
2019-03-28T12:21:38.309Z,13276.00
2019-03-28T12:22:38.236Z,12376.00
2019-03-28T12:23:38.216Z,11688.00
2019-03-28T12:24:38.295Z,11280.00
2019-03-28T12:25:38.211Z,11268.00
2019-03-28T12:26:38.199Z,11860.00
2019-03-28T12:27:38.213Z,13624.00
2019-03-28T12:28:38.151Z,14716.00